N134JT KDWH-KOPF
Flight info
| Callsign | N134JT |
|---|---|
| Flight time | 2h 34m |
| Altitude | 37000 |
| Route | MMALT7 GUSTI AWDAD SJI NUN HEVVN BAYPO SABEE CUURT1 |
| Aircraft | P180/L-SBDFGM3RWXY/LB1 |
Departure
| Time | 2026-04-24 21:38 |
|---|---|
| Airport | David Wayne Hooks Memorial Airport (KDWH) |
Arrival
| Time | 2026-04-25 00:13 |
|---|---|
| Airport | Miami-Opa Locka Executive Airport (KOPF) |
| Time | Latitude | Longitude | Altitude | Speed | Heading |
|---|---|---|---|---|---|
| 2026-04-24 21:18 | 30.06971 | -95.55133 | 148 ft | 0 kts | 269° |
| 2026-04-24 21:35 | 30.06971 | -95.55142 | 148 ft | 3 kts | 273° |
| 2026-04-24 21:36 | 30.06986 | -95.55175 | 148 ft | 7 kts | 296° |
| 2026-04-24 21:36 | 30.06991 | -95.55247 | 147 ft | 11 kts | 270° |
| 2026-04-24 21:36 | 30.06991 | -95.55319 | 146 ft | 2 kts | 269° |
| 2026-04-24 21:36 | 30.06991 | -95.55352 | 146 ft | 6 kts | 269° |
| 2026-04-24 21:37 | 30.06991 | -95.55355 | 146 ft | 0 kts | 269° |
| 2026-04-24 21:37 | 30.06990 | -95.55366 | 146 ft | 4 kts | 269° |
| 2026-04-24 21:37 | 30.06987 | -95.55415 | 145 ft | 8 kts | 243° |
| 2026-04-24 21:38 | 30.06746 | -95.55396 | 146 ft | 75 kts | 173° |
| 2026-04-24 21:38 | 30.06037 | -95.55291 | 168 ft | 126 kts | 173° |
| 2026-04-24 21:38 | 30.05122 | -95.55147 | 643 ft | 145 kts | 172° |
| 2026-04-24 21:38 | 30.04045 | -95.55033 | 1238 ft | 165 kts | 184° |
| 2026-04-24 21:39 | 30.02923 | -95.55383 | 1880 ft | 171 kts | 213° |
| 2026-04-24 21:39 | 30.02230 | -95.56605 | 2029 ft | 209 kts | 256° |
| 2026-04-24 21:39 | 30.02255 | -95.58397 | 2028 ft | 236 kts | 272° |
| 2026-04-24 21:39 | 30.02369 | -95.60357 | 2017 ft | 252 kts | 271° |
| 2026-04-24 21:40 | 30.02494 | -95.62380 | 2011 ft | 252 kts | 270° |
| 2026-04-24 21:40 | 30.02666 | -95.64396 | 1945 ft | 252 kts | 272° |
| 2026-04-24 21:40 | 30.02844 | -95.66389 | 1940 ft | 247 kts | 272° |
| 2026-04-24 21:40 | 30.02997 | -95.68350 | 1939 ft | 243 kts | 271° |
| 2026-04-24 21:41 | 30.03159 | -95.70183 | 1940 ft | 215 kts | 272° |
| 2026-04-24 21:41 | 30.03312 | -95.71802 | 1940 ft | 192 kts | 271° |
| 2026-04-24 21:41 | 30.03337 | -95.73269 | 1943 ft | 181 kts | 251° |
| 2026-04-24 21:41 | 30.02496 | -95.74264 | 2340 ft | 178 kts | 199° |
| 2026-04-24 21:42 | 30.01266 | -95.74074 | 2752 ft | 190 kts | 155° |
| 2026-04-24 21:42 | 30.00146 | -95.73282 | 3229 ft | 188 kts | 152° |
| 2026-04-24 21:42 | 29.99112 | -95.72327 | 3575 ft | 199 kts | 126° |
| 2026-04-24 21:42 | 29.98795 | -95.70749 | 3995 ft | 209 kts | 94° |
| 2026-04-24 21:43 | 29.98768 | -95.69123 | 4803 ft | 201 kts | 97° |
| 2026-04-24 21:43 | 29.98620 | -95.67520 | 5532 ft | 203 kts | 102° |
| 2026-04-24 21:43 | 29.98452 | -95.65890 | 6237 ft | 206 kts | 98° |
| 2026-04-24 21:43 | 29.98316 | -95.64164 | 6594 ft | 224 kts | 97° |
| 2026-04-24 21:44 | 29.98166 | -95.62367 | 7217 ft | 225 kts | 97° |
| 2026-04-24 21:44 | 29.98008 | -95.60545 | 7752 ft | 230 kts | 98° |
| 2026-04-24 21:44 | 29.97846 | -95.58693 | 8259 ft | 234 kts | 98° |
| 2026-04-24 21:44 | 29.97681 | -95.56822 | 8800 ft | 237 kts | 97° |
| 2026-04-24 21:45 | 29.97517 | -95.54911 | 9333 ft | 239 kts | 97° |
| 2026-04-24 21:45 | 29.97350 | -95.52984 | 9836 ft | 243 kts | 97° |
| 2026-04-24 21:45 | 29.97179 | -95.51036 | 10278 ft | 245 kts | 97° |
| 2026-04-24 21:45 | 29.97006 | -95.49068 | 10734 ft | 248 kts | 97° |
| 2026-04-24 21:46 | 29.96833 | -95.47083 | 11191 ft | 250 kts | 96° |
| 2026-04-24 21:46 | 29.96658 | -95.45084 | 11697 ft | 252 kts | 96° |
| 2026-04-24 21:46 | 29.96478 | -95.43063 | 12188 ft | 255 kts | 97° |
| 2026-04-24 21:46 | 29.96296 | -95.41015 | 12651 ft | 258 kts | 96° |
| 2026-04-24 21:47 | 29.96114 | -95.38944 | 13136 ft | 261 kts | 96° |
| 2026-04-24 21:47 | 29.95993 | -95.37565 | 13440 ft | 262 kts | 96° |
| 2026-04-24 21:47 | 29.95745 | -95.34780 | 13939 ft | 265 kts | 96° |
| 2026-04-24 21:47 | 29.95559 | -95.32665 | 14281 ft | 267 kts | 95° |
| 2026-04-24 21:48 | 29.95365 | -95.30513 | 14595 ft | 270 kts | 95° |
| 2026-04-24 21:48 | 29.95171 | -95.28319 | 14702 ft | 283 kts | 95° |
| 2026-04-24 21:48 | 29.94965 | -95.26045 | 14980 ft | 285 kts | 96° |
| 2026-04-24 21:48 | 29.94762 | -95.23767 | 15310 ft | 286 kts | 95° |
| 2026-04-24 21:49 | 29.94558 | -95.21473 | 15641 ft | 288 kts | 95° |
| 2026-04-24 21:49 | 29.94350 | -95.19158 | 15819 ft | 296 kts | 95° |
| 2026-04-24 21:49 | 29.94127 | -95.16737 | 15827 ft | 310 kts | 96° |
| 2026-04-24 21:49 | 29.93901 | -95.14215 | 15847 ft | 320 kts | 95° |
| 2026-04-24 21:50 | 29.93673 | -95.11690 | 16299 ft | 307 kts | 96° |
| 2026-04-24 21:50 | 29.93457 | -95.09321 | 16983 ft | 293 kts | 95° |
| 2026-04-24 21:50 | 29.93246 | -95.06972 | 17262 ft | 297 kts | 95° |
| 2026-04-24 21:50 | 29.93030 | -95.04601 | 17576 ft | 298 kts | 95° |
| 2026-04-24 21:51 | 29.92810 | -95.02213 | 17821 ft | 300 kts | 95° |
| 2026-04-24 21:51 | 29.92595 | -94.99847 | 18063 ft | 301 kts | 95° |
| 2026-04-24 21:51 | 29.92372 | -94.97438 | 18308 ft | 303 kts | 95° |
| 2026-04-24 21:51 | 29.92151 | -94.95017 | 18532 ft | 304 kts | 95° |
| 2026-04-24 21:52 | 29.91929 | -94.92586 | 18788 ft | 305 kts | 95° |
| 2026-04-24 21:52 | 29.91703 | -94.90145 | 19046 ft | 307 kts | 95° |
| 2026-04-24 21:52 | 29.91474 | -94.87684 | 19301 ft | 310 kts | 95° |
| 2026-04-24 21:52 | 29.91247 | -94.85211 | 19561 ft | 311 kts | 95° |
| 2026-04-24 21:53 | 29.91017 | -94.82723 | 19804 ft | 313 kts | 95° |
| 2026-04-24 21:53 | 29.90782 | -94.80218 | 20020 ft | 315 kts | 95° |
| 2026-04-24 21:53 | 29.90549 | -94.77703 | 20246 ft | 316 kts | 95° |
| 2026-04-24 21:53 | 29.90313 | -94.75173 | 20465 ft | 318 kts | 95° |
| 2026-04-24 21:54 | 29.90074 | -94.72630 | 20679 ft | 320 kts | 95° |
| 2026-04-24 21:54 | 29.89836 | -94.70072 | 20915 ft | 322 kts | 95° |
| 2026-04-24 21:54 | 29.89593 | -94.67497 | 21144 ft | 324 kts | 95° |
| 2026-04-24 21:54 | 29.89349 | -94.64909 | 21378 ft | 325 kts | 95° |
| 2026-04-24 21:55 | 29.89105 | -94.62306 | 21613 ft | 327 kts | 95° |
| 2026-04-24 21:55 | 29.88857 | -94.59693 | 21854 ft | 329 kts | 95° |
| 2026-04-24 21:55 | 29.88609 | -94.57061 | 22156 ft | 331 kts | 95° |
| 2026-04-24 21:55 | 29.88358 | -94.54416 | 22435 ft | 334 kts | 95° |
| 2026-04-24 21:56 | 29.88105 | -94.51751 | 22725 ft | 336 kts | 95° |
| 2026-04-24 21:56 | 29.87848 | -94.49069 | 23012 ft | 338 kts | 95° |
| 2026-04-24 21:56 | 29.87590 | -94.46369 | 23308 ft | 340 kts | 95° |
| 2026-04-24 21:56 | 29.87336 | -94.43693 | 23569 ft | 342 kts | 95° |
| 2026-04-24 21:57 | 29.87071 | -94.40956 | 23826 ft | 344 kts | 95° |
| 2026-04-24 21:57 | 29.86808 | -94.38213 | 24088 ft | 346 kts | 95° |
| 2026-04-24 21:57 | 29.86542 | -94.35448 | 24345 ft | 347 kts | 95° |
| 2026-04-24 21:57 | 29.86274 | -94.32674 | 24608 ft | 349 kts | 94° |
| 2026-04-24 21:58 | 29.86182 | -94.29879 | 24857 ft | 350 kts | 88° |
| 2026-04-24 21:58 | 29.86099 | -94.27063 | 25130 ft | 352 kts | 90° |
| 2026-04-24 21:58 | 29.85977 | -94.24235 | 25402 ft | 354 kts | 90° |
| 2026-04-24 21:58 | 29.85887 | -94.21396 | 25669 ft | 356 kts | 89° |
| 2026-04-24 21:59 | 29.85811 | -94.18543 | 25927 ft | 357 kts | 89° |
| 2026-04-24 21:59 | 29.85726 | -94.15709 | 26129 ft | 362 kts | 89° |
| 2026-04-24 21:59 | 29.85635 | -94.12785 | 26251 ft | 368 kts | 89° |
| 2026-04-24 21:59 | 29.85539 | -94.09812 | 26376 ft | 374 kts | 89° |
| 2026-04-24 22:00 | 29.85443 | -94.06790 | 26500 ft | 380 kts | 89° |
| 2026-04-24 22:00 | 29.85430 | -94.03741 | 26620 ft | 382 kts | 81° |
| 2026-04-24 22:00 | 29.85766 | -94.00700 | 26747 ft | 384 kts | 77° |
| 2026-04-24 22:00 | 29.86125 | -93.97633 | 26875 ft | 389 kts | 78° |
| 2026-04-24 22:01 | 29.86446 | -93.94527 | 27006 ft | 393 kts | 79° |
| 2026-04-24 22:01 | 29.86762 | -93.91383 | 27136 ft | 396 kts | 79° |
| 2026-04-24 22:01 | 29.87104 | -93.88228 | 27265 ft | 398 kts | 78° |
| 2026-04-24 22:01 | 29.87455 | -93.85048 | 27395 ft | 401 kts | 78° |
| 2026-04-24 22:02 | 29.87791 | -93.81850 | 27525 ft | 403 kts | 79° |
| 2026-04-24 22:02 | 29.88125 | -93.78635 | 27681 ft | 405 kts | 79° |
| 2026-04-24 22:02 | 29.88467 | -93.75402 | 27808 ft | 407 kts | 78° |
| 2026-04-24 22:02 | 29.88812 | -93.72156 | 27937 ft | 409 kts | 78° |
| 2026-04-24 22:03 | 29.89154 | -93.68897 | 28061 ft | 411 kts | 78° |
| 2026-04-24 22:03 | 29.89497 | -93.65614 | 28194 ft | 413 kts | 78° |
| 2026-04-24 22:03 | 29.89838 | -93.62366 | 28324 ft | 415 kts | 78° |
| 2026-04-24 22:03 | 29.90187 | -93.59014 | 28457 ft | 417 kts | 78° |
| 2026-04-24 22:04 | 29.90527 | -93.55739 | 28588 ft | 418 kts | 78° |
| 2026-04-24 22:04 | 29.90875 | -93.52402 | 28722 ft | 419 kts | 78° |
| 2026-04-24 22:04 | 29.91217 | -93.49062 | 28858 ft | 420 kts | 79° |
| 2026-04-24 22:04 | 29.91560 | -93.45721 | 28993 ft | 420 kts | 78° |
| 2026-04-24 22:05 | 29.91910 | -93.42379 | 29127 ft | 420 kts | 78° |
| 2026-04-24 22:05 | 29.92253 | -93.39038 | 29262 ft | 420 kts | 78° |
| 2026-04-24 22:05 | 29.92593 | -93.35688 | 29398 ft | 421 kts | 78° |
| 2026-04-24 22:05 | 29.92937 | -93.32338 | 29533 ft | 421 kts | 78° |
| 2026-04-24 22:06 | 29.93280 | -93.28978 | 29667 ft | 421 kts | 78° |
| 2026-04-24 22:06 | 29.93621 | -93.25618 | 29806 ft | 422 kts | 78° |
| 2026-04-24 22:06 | 29.93963 | -93.22257 | 29936 ft | 423 kts | 78° |
| 2026-04-24 22:06 | 29.94302 | -93.18886 | 30054 ft | 423 kts | 78° |
| 2026-04-24 22:07 | 29.94644 | -93.15517 | 30170 ft | 423 kts | 78° |
| 2026-04-24 22:07 | 29.94983 | -93.12150 | 30287 ft | 423 kts | 78° |
| 2026-04-24 22:07 | 29.95320 | -93.08782 | 30405 ft | 423 kts | 78° |
| 2026-04-24 22:07 | 29.95660 | -93.05412 | 30525 ft | 423 kts | 78° |
| 2026-04-24 22:08 | 29.95995 | -93.02037 | 30645 ft | 423 kts | 78° |
| 2026-04-24 22:08 | 29.96325 | -92.98710 | 30763 ft | 422 kts | 78° |
| 2026-04-24 22:08 | 29.96661 | -92.95352 | 30883 ft | 422 kts | 78° |
| 2026-04-24 22:08 | 29.96994 | -92.91993 | 31003 ft | 421 kts | 78° |
| 2026-04-24 22:09 | 29.97285 | -92.88629 | 31132 ft | 422 kts | 80° |
| 2026-04-24 22:09 | 29.97552 | -92.85258 | 31257 ft | 422 kts | 79° |
| 2026-04-24 22:09 | 29.97831 | -92.81891 | 31376 ft | 422 kts | 79° |
| 2026-04-24 22:09 | 29.98111 | -92.78522 | 31500 ft | 422 kts | 79° |
| 2026-04-24 22:10 | 29.98382 | -92.75155 | 31620 ft | 422 kts | 79° |
| 2026-04-24 22:10 | 29.98651 | -92.71783 | 31744 ft | 422 kts | 79° |
| 2026-04-24 22:10 | 29.98920 | -92.68404 | 31875 ft | 424 kts | 79° |
| 2026-04-24 22:10 | 29.99197 | -92.65007 | 32015 ft | 426 kts | 79° |
| 2026-04-24 22:11 | 29.99467 | -92.61599 | 32136 ft | 427 kts | 79° |
| 2026-04-24 22:11 | 29.99735 | -92.58194 | 32263 ft | 427 kts | 79° |
| 2026-04-24 22:11 | 30.00006 | -92.54774 | 32389 ft | 428 kts | 79° |
| 2026-04-24 22:11 | 30.00280 | -92.51357 | 32516 ft | 427 kts | 79° |
| 2026-04-24 22:12 | 30.00546 | -92.47942 | 32642 ft | 427 kts | 79° |
| 2026-04-24 22:12 | 30.00812 | -92.44535 | 32767 ft | 427 kts | 79° |
| 2026-04-24 22:12 | 30.01080 | -92.41128 | 32895 ft | 426 kts | 79° |
| 2026-04-24 22:12 | 30.01345 | -92.37725 | 33021 ft | 426 kts | 79° |
| 2026-04-24 22:13 | 30.01608 | -92.34328 | 33148 ft | 425 kts | 79° |
| 2026-04-24 22:13 | 30.01868 | -92.30980 | 33281 ft | 424 kts | 79° |
| 2026-04-24 22:13 | 30.02130 | -92.27592 | 33432 ft | 423 kts | 80° |
| 2026-04-24 22:13 | 30.02389 | -92.24211 | 33562 ft | 422 kts | 81° |
| 2026-04-24 22:14 | 30.02645 | -92.20843 | 33692 ft | 421 kts | 81° |
| 2026-04-24 22:14 | 30.02903 | -92.17488 | 33821 ft | 420 kts | 81° |
| 2026-04-24 22:14 | 30.03160 | -92.14126 | 33940 ft | 419 kts | 81° |
| 2026-04-24 22:14 | 30.03411 | -92.10784 | 34052 ft | 418 kts | 81° |
| 2026-04-24 22:15 | 30.03664 | -92.07448 | 34166 ft | 417 kts | 81° |
| 2026-04-24 22:15 | 30.03915 | -92.04117 | 34280 ft | 416 kts | 81° |
| 2026-04-24 22:15 | 30.04165 | -92.00798 | 34394 ft | 415 kts | 81° |
| 2026-04-24 22:15 | 30.04412 | -91.97487 | 34518 ft | 414 kts | 81° |
| 2026-04-24 22:16 | 30.04660 | -91.94168 | 34634 ft | 413 kts | 81° |
| 2026-04-24 22:16 | 30.04905 | -91.90870 | 34765 ft | 412 kts | 81° |
| 2026-04-24 22:16 | 30.05148 | -91.87581 | 34882 ft | 410 kts | 80° |
| 2026-04-24 22:16 | 30.05390 | -91.84304 | 35012 ft | 409 kts | 80° |
| 2026-04-24 22:17 | 30.05630 | -91.81041 | 35131 ft | 408 kts | 80° |
| 2026-04-24 22:17 | 30.05869 | -91.77787 | 35249 ft | 406 kts | 80° |
| 2026-04-24 22:17 | 30.06106 | -91.74541 | 35367 ft | 405 kts | 80° |
| 2026-04-24 22:17 | 30.06341 | -91.71307 | 35486 ft | 403 kts | 80° |
| 2026-04-24 22:18 | 30.06575 | -91.68090 | 35615 ft | 402 kts | 80° |
| 2026-04-24 22:18 | 30.06806 | -91.64873 | 35728 ft | 400 kts | 80° |
| 2026-04-24 22:18 | 30.07038 | -91.61681 | 35846 ft | 399 kts | 80° |
| 2026-04-24 22:18 | 30.07263 | -91.58537 | 35968 ft | 397 kts | 80° |
| 2026-04-24 22:19 | 30.07490 | -91.55364 | 36089 ft | 396 kts | 80° |
| 2026-04-24 22:19 | 30.07715 | -91.52207 | 36197 ft | 394 kts | 81° |
| 2026-04-24 22:19 | 30.07939 | -91.49064 | 36326 ft | 392 kts | 81° |
| 2026-04-24 22:19 | 30.08160 | -91.45932 | 36448 ft | 390 kts | 81° |
| 2026-04-24 22:20 | 30.08310 | -91.43827 | 36532 ft | 389 kts | 81° |
| 2026-04-24 22:20 | 30.08599 | -91.39715 | 36698 ft | 386 kts | 81° |
| 2026-04-24 22:20 | 30.08743 | -91.37665 | 36781 ft | 385 kts | 80° |
| 2026-04-24 22:21 | 30.09176 | -91.31495 | 36868 ft | 387 kts | 81° |
| 2026-04-24 22:21 | 30.09608 | -91.25265 | 36866 ft | 391 kts | 81° |
| 2026-04-24 22:22 | 30.10041 | -91.18982 | 36868 ft | 394 kts | 81° |
| 2026-04-24 22:22 | 30.10475 | -91.12644 | 36873 ft | 398 kts | 81° |
| 2026-04-24 22:23 | 30.10911 | -91.06244 | 36870 ft | 402 kts | 81° |
| 2026-04-24 22:23 | 30.11346 | -90.99758 | 36870 ft | 408 kts | 82° |
| 2026-04-24 22:24 | 30.12110 | -90.93320 | 36889 ft | 406 kts | 70° |
| 2026-04-24 22:24 | 30.13672 | -90.87037 | 36890 ft | 409 kts | 69° |
| 2026-04-24 22:25 | 30.15218 | -90.80692 | 36885 ft | 411 kts | 69° |
| 2026-04-24 22:25 | 30.16789 | -90.74299 | 36881 ft | 415 kts | 69° |
| 2026-04-24 22:26 | 30.18358 | -90.67862 | 36877 ft | 417 kts | 69° |
| 2026-04-24 22:26 | 30.19938 | -90.61390 | 36878 ft | 420 kts | 69° |
| 2026-04-24 22:27 | 30.21520 | -90.54877 | 36880 ft | 421 kts | 69° |
| 2026-04-24 22:27 | 30.23106 | -90.48336 | 36879 ft | 423 kts | 69° |
| 2026-04-24 22:28 | 30.24685 | -90.41815 | 36888 ft | 424 kts | 69° |
| 2026-04-24 22:28 | 30.26271 | -90.35249 | 36887 ft | 424 kts | 69° |
| 2026-04-24 22:29 | 30.28638 | -90.25412 | 36888 ft | 423 kts | 69° |
| 2026-04-24 22:29 | 30.30216 | -90.18844 | 36886 ft | 423 kts | 69° |
| 2026-04-24 22:30 | 30.31785 | -90.12284 | 36894 ft | 422 kts | 69° |
| 2026-04-24 22:30 | 30.33349 | -90.05736 | 36897 ft | 422 kts | 69° |
| 2026-04-24 22:31 | 30.34911 | -89.99183 | 36899 ft | 421 kts | 69° |
| 2026-04-24 22:31 | 30.36457 | -89.92684 | 36885 ft | 421 kts | 69° |
| 2026-04-24 22:32 | 30.38006 | -89.86145 | 36885 ft | 421 kts | 69° |
| 2026-04-24 22:32 | 30.39554 | -89.79602 | 36885 ft | 420 kts | 69° |
| 2026-04-24 22:33 | 30.41096 | -89.73072 | 36885 ft | 420 kts | 70° |
| 2026-04-24 22:33 | 30.42633 | -89.66545 | 36867 ft | 420 kts | 70° |
| 2026-04-24 22:34 | 30.44164 | -89.60021 | 36867 ft | 419 kts | 70° |
| 2026-04-24 22:34 | 30.45693 | -89.53496 | 36870 ft | 419 kts | 70° |
| 2026-04-24 22:35 | 30.47210 | -89.47008 | 36904 ft | 419 kts | 70° |
| 2026-04-24 22:35 | 30.48730 | -89.40487 | 36904 ft | 419 kts | 70° |
| 2026-04-24 22:36 | 30.50248 | -89.33964 | 36905 ft | 419 kts | 70° |
| 2026-04-24 22:36 | 30.51760 | -89.27439 | 36910 ft | 419 kts | 70° |
| 2026-04-24 22:37 | 30.53269 | -89.20917 | 36911 ft | 419 kts | 69° |
| 2026-04-24 22:37 | 30.54777 | -89.14391 | 36910 ft | 419 kts | 69° |
| 2026-04-24 22:38 | 30.56280 | -89.07863 | 36912 ft | 418 kts | 69° |
| 2026-04-24 22:38 | 30.57779 | -89.01342 | 36895 ft | 418 kts | 69° |
| 2026-04-24 22:39 | 30.59273 | -88.94814 | 36898 ft | 418 kts | 70° |
| 2026-04-24 22:39 | 30.60765 | -88.88293 | 36895 ft | 418 kts | 70° |
| 2026-04-24 22:40 | 30.62253 | -88.81759 | 36898 ft | 418 kts | 69° |
| 2026-04-24 22:40 | 30.63738 | -88.75240 | 36915 ft | 418 kts | 69° |
| 2026-04-24 22:41 | 30.65219 | -88.68712 | 36916 ft | 418 kts | 69° |
| 2026-04-24 22:41 | 30.66693 | -88.62196 | 36915 ft | 417 kts | 69° |
| 2026-04-24 22:42 | 30.68165 | -88.55676 | 36915 ft | 417 kts | 70° |
| 2026-04-24 22:42 | 30.69635 | -88.49151 | 36921 ft | 417 kts | 70° |
| 2026-04-24 22:43 | 30.71101 | -88.42624 | 36927 ft | 418 kts | 69° |
| 2026-04-24 22:43 | 30.71827 | -88.35912 | 36922 ft | 428 kts | 87° |
| 2026-04-24 22:44 | 30.70927 | -88.29047 | 36917 ft | 433 kts | 104° |
| 2026-04-24 22:44 | 30.69273 | -88.22317 | 36918 ft | 433 kts | 104° |
| 2026-04-24 22:45 | 30.67629 | -88.15583 | 36921 ft | 433 kts | 104° |
| 2026-04-24 22:45 | 30.65973 | -88.08857 | 36960 ft | 433 kts | 104° |
| 2026-04-24 22:46 | 30.64319 | -88.02130 | 36951 ft | 432 kts | 104° |
| 2026-04-24 22:46 | 30.62665 | -87.95429 | 36951 ft | 431 kts | 104° |
| 2026-04-24 22:47 | 30.61008 | -87.88734 | 36938 ft | 431 kts | 104° |
| 2026-04-24 22:47 | 30.59352 | -87.82052 | 36940 ft | 430 kts | 104° |
| 2026-04-24 22:48 | 30.57693 | -87.75377 | 36940 ft | 430 kts | 104° |
| 2026-04-24 22:48 | 30.56031 | -87.68712 | 36941 ft | 430 kts | 105° |
| 2026-04-24 22:49 | 30.54371 | -87.62063 | 36937 ft | 428 kts | 105° |
| 2026-04-24 22:49 | 30.52710 | -87.55428 | 36940 ft | 428 kts | 105° |
| 2026-04-24 22:50 | 30.51061 | -87.48856 | 36940 ft | 427 kts | 105° |
| 2026-04-24 22:50 | 30.49399 | -87.42248 | 36941 ft | 426 kts | 105° |
| 2026-04-24 22:51 | 30.47735 | -87.35650 | 36942 ft | 426 kts | 105° |
| 2026-04-24 22:51 | 30.46422 | -87.28982 | 36943 ft | 424 kts | 99° |
| 2026-04-24 22:52 | 30.45230 | -87.22296 | 36946 ft | 423 kts | 100° |
| 2026-04-24 22:52 | 30.44066 | -87.15618 | 36943 ft | 422 kts | 99° |
| 2026-04-24 22:53 | 30.42886 | -87.08962 | 36942 ft | 422 kts | 100° |
| 2026-04-24 22:53 | 30.41710 | -87.02311 | 36961 ft | 421 kts | 100° |
| 2026-04-24 22:54 | 30.40529 | -86.95661 | 36961 ft | 421 kts | 100° |
| 2026-04-24 22:54 | 30.39346 | -86.89028 | 36960 ft | 419 kts | 100° |
| 2026-04-24 22:55 | 30.38179 | -86.82480 | 36953 ft | 417 kts | 100° |
| 2026-04-24 22:55 | 30.37002 | -86.75915 | 36951 ft | 416 kts | 100° |
| 2026-04-24 22:56 | 30.35825 | -86.69370 | 36949 ft | 415 kts | 100° |
| 2026-04-24 22:56 | 30.34646 | -86.62823 | 36934 ft | 416 kts | 100° |
| 2026-04-24 22:57 | 30.33457 | -86.56255 | 36963 ft | 417 kts | 100° |
| 2026-04-24 22:57 | 30.32263 | -86.49678 | 36966 ft | 417 kts | 100° |
| 2026-04-24 22:58 | 30.31069 | -86.43108 | 36967 ft | 417 kts | 100° |
| 2026-04-24 22:58 | 30.29873 | -86.36549 | 36965 ft | 417 kts | 100° |
| 2026-04-24 22:59 | 30.28671 | -86.29984 | 36966 ft | 416 kts | 100° |
| 2026-04-24 23:00 | 30.26872 | -86.20190 | 36961 ft | 416 kts | 100° |
| 2026-04-24 23:00 | 30.25674 | -86.13700 | 36967 ft | 406 kts | 101° |
| 2026-04-24 23:01 | 30.24514 | -86.07417 | 36965 ft | 392 kts | 101° |
| 2026-04-24 23:01 | 30.23380 | -86.01310 | 36963 ft | 385 kts | 101° |
| 2026-04-24 23:02 | 30.22260 | -85.95290 | 36951 ft | 381 kts | 101° |
| 2026-04-24 23:02 | 30.21156 | -85.89356 | 36949 ft | 379 kts | 102° |
| 2026-04-24 23:03 | 30.20045 | -85.83418 | 36952 ft | 377 kts | 101° |
| 2026-04-24 23:03 | 30.18938 | -85.77505 | 36950 ft | 376 kts | 101° |
| 2026-04-24 23:04 | 30.17828 | -85.71606 | 36947 ft | 375 kts | 101° |
| 2026-04-24 23:04 | 30.16720 | -85.65709 | 36946 ft | 375 kts | 101° |
| 2026-04-24 23:05 | 30.15606 | -85.59821 | 36944 ft | 375 kts | 101° |
| 2026-04-24 23:05 | 30.14492 | -85.53933 | 36945 ft | 375 kts | 102° |
| 2026-04-24 23:06 | 30.13373 | -85.48042 | 36944 ft | 375 kts | 102° |
| 2026-04-24 23:06 | 30.12254 | -85.42153 | 36938 ft | 376 kts | 101° |
| 2026-04-24 23:07 | 30.11126 | -85.36254 | 36933 ft | 376 kts | 102° |
| 2026-04-24 23:07 | 30.10188 | -85.31337 | 36931 ft | 377 kts | 102° |
| 2026-04-24 23:08 | 30.09051 | -85.25419 | 36928 ft | 378 kts | 101° |
| 2026-04-24 23:08 | 30.07914 | -85.19494 | 36934 ft | 378 kts | 101° |
| 2026-04-24 23:09 | 30.06769 | -85.13560 | 36934 ft | 379 kts | 102° |
| 2026-04-24 23:09 | 30.05623 | -85.07620 | 36951 ft | 379 kts | 101° |
| 2026-04-24 23:10 | 30.04472 | -85.01679 | 36950 ft | 380 kts | 102° |
| 2026-04-24 23:10 | 30.03315 | -84.95717 | 36952 ft | 381 kts | 102° |
| 2026-04-24 23:11 | 30.02150 | -84.89740 | 36954 ft | 382 kts | 102° |
| 2026-04-24 23:11 | 30.00984 | -84.83759 | 36952 ft | 383 kts | 102° |
| 2026-04-24 23:12 | 29.99811 | -84.77767 | 36952 ft | 383 kts | 102° |
| 2026-04-24 23:12 | 29.98633 | -84.71766 | 36952 ft | 384 kts | 102° |
| 2026-04-24 23:13 | 29.97453 | -84.65760 | 36950 ft | 384 kts | 102° |
| 2026-04-24 23:13 | 29.96272 | -84.59784 | 36950 ft | 385 kts | 102° |
| 2026-04-24 23:14 | 29.95084 | -84.53761 | 36953 ft | 385 kts | 102° |
| 2026-04-24 23:14 | 29.93890 | -84.47735 | 36956 ft | 386 kts | 102° |
| 2026-04-24 23:15 | 29.92689 | -84.41705 | 36960 ft | 386 kts | 102° |
| 2026-04-24 23:15 | 29.91489 | -84.35666 | 36958 ft | 386 kts | 102° |
| 2026-04-24 23:16 | 29.90284 | -84.29636 | 36958 ft | 386 kts | 103° |
| 2026-04-24 23:16 | 29.89075 | -84.23594 | 36957 ft | 387 kts | 103° |
| 2026-04-24 23:17 | 29.87862 | -84.17553 | 36959 ft | 387 kts | 103° |
| 2026-04-24 23:17 | 29.86647 | -84.11513 | 36959 ft | 387 kts | 103° |
| 2026-04-24 23:18 | 29.85426 | -84.05462 | 36961 ft | 387 kts | 103° |
| 2026-04-24 23:18 | 29.84203 | -83.99412 | 36961 ft | 388 kts | 103° |
| 2026-04-24 23:19 | 29.82501 | -83.93540 | 36953 ft | 388 kts | 117° |
| 2026-04-24 23:19 | 29.79337 | -83.88539 | 36948 ft | 388 kts | 136° |
| 2026-04-24 23:20 | 29.75000 | -83.84900 | 36946 ft | 386 kts | 153° |
| 2026-04-24 23:20 | 29.70327 | -83.81916 | 36949 ft | 387 kts | 152° |
| 2026-04-24 23:21 | 29.65622 | -83.78900 | 36947 ft | 387 kts | 153° |
| 2026-04-24 23:21 | 29.60918 | -83.75894 | 36950 ft | 387 kts | 152° |
| 2026-04-24 23:22 | 29.56196 | -83.72875 | 36954 ft | 387 kts | 153° |
| 2026-04-24 23:22 | 29.51485 | -83.69870 | 36955 ft | 388 kts | 153° |
| 2026-04-24 23:23 | 29.46795 | -83.66881 | 36954 ft | 388 kts | 153° |
| 2026-04-24 23:23 | 29.42075 | -83.63876 | 36955 ft | 388 kts | 153° |
| 2026-04-24 23:24 | 29.37345 | -83.60867 | 36950 ft | 388 kts | 153° |
| 2026-04-24 23:24 | 29.32614 | -83.57861 | 36947 ft | 389 kts | 153° |
| 2026-04-24 23:25 | 29.27870 | -83.54849 | 36950 ft | 390 kts | 153° |
| 2026-04-24 23:25 | 29.23119 | -83.51839 | 36950 ft | 390 kts | 153° |
| 2026-04-24 23:26 | 29.18369 | -83.48829 | 36955 ft | 390 kts | 153° |
| 2026-04-24 23:26 | 29.13646 | -83.45842 | 36955 ft | 391 kts | 153° |
| 2026-04-24 23:27 | 29.08884 | -83.42832 | 36954 ft | 391 kts | 153° |
| 2026-04-24 23:27 | 29.04119 | -83.39811 | 36949 ft | 393 kts | 152° |
| 2026-04-24 23:27 | 29.01903 | -83.37953 | 36947 ft | 397 kts | 141° |
| 2026-04-24 23:28 | 29.00025 | -83.35629 | 36950 ft | 400 kts | 129° |
| 2026-04-24 23:28 | 28.98551 | -83.32922 | 36949 ft | 403 kts | 117° |
| 2026-04-24 23:28 | 28.97539 | -83.29943 | 36949 ft | 404 kts | 107° |
| 2026-04-24 23:29 | 28.95169 | -83.24167 | 36949 ft | 402 kts | 126° |
| 2026-04-24 23:29 | 28.91370 | -83.19529 | 36952 ft | 400 kts | 139° |
| 2026-04-24 23:30 | 28.87384 | -83.15087 | 36960 ft | 401 kts | 136° |
| 2026-04-24 23:30 | 28.83422 | -83.10609 | 36962 ft | 401 kts | 138° |
| 2026-04-24 23:31 | 28.79466 | -83.06190 | 36963 ft | 401 kts | 137° |
| 2026-04-24 23:31 | 28.75493 | -83.01729 | 36949 ft | 402 kts | 138° |
| 2026-04-24 23:32 | 28.71496 | -82.97261 | 36949 ft | 403 kts | 138° |
| 2026-04-24 23:32 | 28.67484 | -82.92775 | 36950 ft | 404 kts | 138° |
| 2026-04-24 23:33 | 28.63464 | -82.88287 | 36950 ft | 405 kts | 138° |
| 2026-04-24 23:33 | 28.59434 | -82.83793 | 36951 ft | 406 kts | 138° |
| 2026-04-24 23:34 | 28.55405 | -82.79301 | 36951 ft | 406 kts | 138° |
| 2026-04-24 23:34 | 28.51359 | -82.74804 | 36953 ft | 406 kts | 138° |
| 2026-04-24 23:35 | 28.47319 | -82.70309 | 36953 ft | 406 kts | 138° |
| 2026-04-24 23:35 | 28.43274 | -82.65822 | 36944 ft | 407 kts | 139° |
| 2026-04-24 23:36 | 28.39199 | -82.61327 | 36949 ft | 408 kts | 141° |
| 2026-04-24 23:36 | 28.34501 | -82.57846 | 36949 ft | 401 kts | 160° |
| 2026-04-24 23:37 | 28.29257 | -82.55914 | 36946 ft | 395 kts | 170° |
| 2026-04-24 23:37 | 28.21314 | -82.53451 | 36954 ft | 397 kts | 170° |
| 2026-04-24 23:38 | 28.15947 | -82.51803 | 36940 ft | 397 kts | 171° |
| 2026-04-24 23:38 | 28.10646 | -82.50171 | 36948 ft | 398 kts | 171° |
| 2026-04-24 23:39 | 28.05290 | -82.48524 | 36940 ft | 398 kts | 171° |
| 2026-04-24 23:39 | 27.99928 | -82.46879 | 36943 ft | 399 kts | 171° |
| 2026-04-24 23:40 | 27.94566 | -82.45233 | 36941 ft | 400 kts | 171° |
| 2026-04-24 23:40 | 27.89198 | -82.43589 | 36944 ft | 400 kts | 171° |
| 2026-04-24 23:41 | 27.83818 | -82.41944 | 36933 ft | 401 kts | 171° |
| 2026-04-24 23:41 | 27.78409 | -82.40289 | 36940 ft | 404 kts | 171° |
| 2026-04-24 23:42 | 27.72969 | -82.38627 | 36943 ft | 406 kts | 170° |
| 2026-04-24 23:42 | 27.67485 | -82.36955 | 36556 ft | 417 kts | 170° |
| 2026-04-24 23:43 | 27.64638 | -82.36094 | 36008 ft | 430 kts | 170° |
| 2026-04-24 23:43 | 27.61735 | -82.35201 | 35438 ft | 432 kts | 169° |
| 2026-04-24 23:43 | 27.58837 | -82.34303 | 34873 ft | 431 kts | 169° |
| 2026-04-24 23:43 | 27.55940 | -82.33426 | 34301 ft | 431 kts | 169° |
| 2026-04-24 23:44 | 27.53040 | -82.32556 | 33706 ft | 431 kts | 169° |
| 2026-04-24 23:44 | 27.50147 | -82.31671 | 33122 ft | 430 kts | 169° |
| 2026-04-24 23:44 | 27.47302 | -82.30801 | 32562 ft | 429 kts | 169° |
| 2026-04-24 23:44 | 27.44410 | -82.29935 | 31996 ft | 431 kts | 169° |
| 2026-04-24 23:45 | 27.41498 | -82.29053 | 31420 ft | 435 kts | 169° |
| 2026-04-24 23:45 | 27.38569 | -82.28153 | 30846 ft | 437 kts | 169° |
| 2026-04-24 23:45 | 27.35631 | -82.27254 | 30268 ft | 438 kts | 169° |
| 2026-04-24 23:45 | 27.32681 | -82.26380 | 29649 ft | 439 kts | 169° |
| 2026-04-24 23:46 | 27.29728 | -82.25492 | 29061 ft | 438 kts | 169° |
| 2026-04-24 23:46 | 27.26794 | -82.24582 | 28483 ft | 437 kts | 168° |
| 2026-04-24 23:46 | 27.23866 | -82.23691 | 27902 ft | 434 kts | 169° |
| 2026-04-24 23:46 | 27.20947 | -82.22826 | 27332 ft | 432 kts | 169° |
| 2026-04-24 23:47 | 27.18053 | -82.21957 | 26763 ft | 430 kts | 168° |
| 2026-04-24 23:47 | 27.15156 | -82.21064 | 26193 ft | 433 kts | 168° |
| 2026-04-24 23:47 | 27.12239 | -82.20176 | 25620 ft | 435 kts | 168° |
| 2026-04-24 23:47 | 27.09306 | -82.19311 | 25057 ft | 436 kts | 169° |
| 2026-04-24 23:48 | 27.06378 | -82.18656 | 24954 ft | 423 kts | 174° |
| 2026-04-24 23:48 | 27.03507 | -82.18075 | 24960 ft | 415 kts | 173° |
| 2026-04-24 23:48 | 27.00696 | -82.17439 | 24958 ft | 410 kts | 172° |
| 2026-04-24 23:48 | 26.97946 | -82.16834 | 24957 ft | 407 kts | 173° |
| 2026-04-24 23:49 | 26.95164 | -82.16285 | 24942 ft | 405 kts | 174° |
| 2026-04-24 23:49 | 26.92389 | -82.15726 | 24946 ft | 405 kts | 173° |
| 2026-04-24 23:49 | 26.89620 | -82.15116 | 24943 ft | 405 kts | 172° |
| 2026-04-24 23:49 | 26.86845 | -82.14514 | 24941 ft | 404 kts | 173° |
| 2026-04-24 23:50 | 26.84077 | -82.13957 | 24941 ft | 404 kts | 174° |
| 2026-04-24 23:50 | 26.81314 | -82.13394 | 24942 ft | 404 kts | 173° |
| 2026-04-24 23:50 | 26.78549 | -82.12793 | 24941 ft | 404 kts | 173° |
| 2026-04-24 23:50 | 26.75790 | -82.12173 | 24935 ft | 405 kts | 170° |
| 2026-04-24 23:51 | 26.73236 | -82.10903 | 24935 ft | 413 kts | 147° |
| 2026-04-24 23:51 | 26.71132 | -82.08709 | 24923 ft | 416 kts | 130° |
| 2026-04-24 23:51 | 26.69506 | -82.06042 | 24924 ft | 416 kts | 123° |
| 2026-04-24 23:51 | 26.67916 | -82.03340 | 24923 ft | 416 kts | 124° |
| 2026-04-24 23:52 | 26.66288 | -82.00663 | 24921 ft | 416 kts | 124° |
| 2026-04-24 23:52 | 26.64660 | -81.97992 | 24920 ft | 416 kts | 124° |
| 2026-04-24 23:52 | 26.63053 | -81.95304 | 24918 ft | 416 kts | 124° |
| 2026-04-24 23:52 | 26.61444 | -81.92617 | 24918 ft | 416 kts | 124° |
| 2026-04-24 23:53 | 26.59813 | -81.89945 | 24916 ft | 416 kts | 124° |
| 2026-04-24 23:53 | 26.58731 | -81.88174 | 24916 ft | 417 kts | 124° |
| 2026-04-24 23:53 | 26.57113 | -81.85484 | 24916 ft | 417 kts | 124° |
| 2026-04-24 23:53 | 26.55495 | -81.82787 | 24916 ft | 417 kts | 124° |
| 2026-04-24 23:54 | 26.53861 | -81.80105 | 24934 ft | 417 kts | 124° |
| 2026-04-24 23:54 | 26.52221 | -81.77420 | 24724 ft | 423 kts | 124° |
| 2026-04-24 23:54 | 26.50552 | -81.74651 | 24101 ft | 437 kts | 124° |
| 2026-04-24 23:54 | 26.48832 | -81.71806 | 23417 ft | 447 kts | 124° |
| 2026-04-24 23:55 | 26.47041 | -81.68946 | 22704 ft | 450 kts | 127° |
| 2026-04-24 23:55 | 26.45140 | -81.66174 | 22025 ft | 451 kts | 127° |
| 2026-04-24 23:55 | 26.43308 | -81.63342 | 21348 ft | 448 kts | 126° |
| 2026-04-24 23:55 | 26.41511 | -81.60520 | 20675 ft | 443 kts | 126° |
| 2026-04-24 23:56 | 26.39676 | -81.57778 | 20010 ft | 438 kts | 128° |
| 2026-04-24 23:56 | 26.37835 | -81.55097 | 19354 ft | 433 kts | 127° |
| 2026-04-24 23:56 | 26.36056 | -81.52406 | 18694 ft | 429 kts | 126° |
| 2026-04-24 23:56 | 26.34319 | -81.49715 | 18040 ft | 425 kts | 126° |
| 2026-04-24 23:57 | 26.32569 | -81.47081 | 17388 ft | 419 kts | 127° |
| 2026-04-24 23:57 | 26.30823 | -81.44515 | 16752 ft | 414 kts | 127° |
| 2026-04-24 23:57 | 26.29113 | -81.41950 | 16139 ft | 409 kts | 127° |
| 2026-04-24 23:57 | 26.27448 | -81.39400 | 15530 ft | 405 kts | 127° |
| 2026-04-24 23:58 | 26.25780 | -81.36891 | 14921 ft | 401 kts | 127° |
| 2026-04-24 23:58 | 26.24109 | -81.34423 | 14324 ft | 397 kts | 128° |
| 2026-04-24 23:58 | 26.22468 | -81.31966 | 13728 ft | 394 kts | 127° |
| 2026-04-24 23:58 | 26.20863 | -81.29522 | 13130 ft | 388 kts | 127° |
| 2026-04-24 23:59 | 26.19292 | -81.27153 | 12559 ft | 381 kts | 127° |
| 2026-04-24 23:59 | 26.17709 | -81.24817 | 11984 ft | 376 kts | 127° |
| 2026-04-24 23:59 | 26.16144 | -81.22494 | 11424 ft | 372 kts | 127° |
| 2026-04-24 23:59 | 26.14620 | -81.20187 | 10875 ft | 368 kts | 126° |
| 2026-04-25 00:00 | 26.13136 | -81.17962 | 10338 ft | 340 kts | 127° |
| 2026-04-25 00:00 | 26.11768 | -81.15969 | 9852 ft | 309 kts | 127° |
| 2026-04-25 00:00 | 26.10521 | -81.14093 | 9375 ft | 298 kts | 126° |
| 2026-04-25 00:00 | 26.09315 | -81.12256 | 8930 ft | 291 kts | 126° |
| 2026-04-25 00:01 | 26.08109 | -81.10473 | 8499 ft | 286 kts | 127° |
| 2026-04-25 00:01 | 26.06914 | -81.08713 | 8065 ft | 284 kts | 127° |
| 2026-04-25 00:01 | 26.05742 | -81.06946 | 7638 ft | 282 kts | 126° |
| 2026-04-25 00:01 | 26.04577 | -81.05197 | 7221 ft | 280 kts | 127° |
| 2026-04-25 00:02 | 26.03406 | -81.03475 | 6800 ft | 279 kts | 127° |
| 2026-04-25 00:02 | 26.02249 | -81.01754 | 6383 ft | 277 kts | 126° |
| 2026-04-25 00:02 | 26.01135 | -81.00010 | 5999 ft | 274 kts | 121° |
| 2026-04-25 00:02 | 26.00397 | -80.98084 | 5976 ft | 270 kts | 108° |
| 2026-04-25 00:03 | 25.99797 | -80.96131 | 5974 ft | 269 kts | 109° |
| 2026-04-25 00:03 | 25.99081 | -80.94158 | 5979 ft | 276 kts | 112° |
| 2026-04-25 00:03 | 25.98367 | -80.92201 | 5972 ft | 279 kts | 110° |
| 2026-04-25 00:03 | 25.97673 | -80.90145 | 5981 ft | 281 kts | 109° |
| 2026-04-25 00:04 | 25.96990 | -80.88138 | 5975 ft | 281 kts | 110° |
| 2026-04-25 00:04 | 25.96407 | -80.86030 | 5886 ft | 284 kts | 102° |
| 2026-04-25 00:04 | 25.96025 | -80.83857 | 5634 ft | 286 kts | 100° |
| 2026-04-25 00:04 | 25.95659 | -80.81701 | 5391 ft | 279 kts | 100° |
| 2026-04-25 00:05 | 25.95304 | -80.79627 | 5149 ft | 269 kts | 100° |
| 2026-04-25 00:05 | 25.94969 | -80.77642 | 4909 ft | 263 kts | 100° |
| 2026-04-25 00:05 | 25.94632 | -80.75632 | 4660 ft | 258 kts | 100° |
| 2026-04-25 00:05 | 25.94313 | -80.73682 | 4407 ft | 255 kts | 100° |
| 2026-04-25 00:06 | 25.93998 | -80.71754 | 4162 ft | 260 kts | 100° |
| 2026-04-25 00:06 | 25.93677 | -80.69760 | 3913 ft | 264 kts | 100° |
| 2026-04-25 00:06 | 25.93360 | -80.67748 | 3671 ft | 266 kts | 100° |
| 2026-04-25 00:06 | 25.93046 | -80.65717 | 3432 ft | 267 kts | 100° |
| 2026-04-25 00:07 | 25.92735 | -80.63676 | 3185 ft | 268 kts | 100° |
| 2026-04-25 00:07 | 25.92429 | -80.61640 | 2992 ft | 265 kts | 100° |
| 2026-04-25 00:07 | 25.92139 | -80.59648 | 2995 ft | 258 kts | 99° |
| 2026-04-25 00:07 | 25.91858 | -80.57699 | 2994 ft | 253 kts | 100° |
| 2026-04-25 00:08 | 25.91581 | -80.55780 | 2994 ft | 251 kts | 100° |
| 2026-04-25 00:08 | 25.91389 | -80.53865 | 2986 ft | 250 kts | 88° |
| 2026-04-25 00:08 | 25.91929 | -80.52044 | 2985 ft | 250 kts | 64° |
| 2026-04-25 00:08 | 25.92619 | -80.50280 | 2981 ft | 249 kts | 71° |
| 2026-04-25 00:09 | 25.93182 | -80.48459 | 2985 ft | 249 kts | 71° |
| 2026-04-25 00:09 | 25.93763 | -80.46644 | 2879 ft | 252 kts | 71° |
| 2026-04-25 00:09 | 25.94270 | -80.44756 | 2531 ft | 254 kts | 78° |
| 2026-04-25 00:09 | 25.94601 | -80.42916 | 2159 ft | 232 kts | 81° |
| 2026-04-25 00:10 | 25.94916 | -80.41229 | 1790 ft | 215 kts | 79° |
| 2026-04-25 00:10 | 25.95208 | -80.39691 | 1693 ft | 190 kts | 79° |
| 2026-04-25 00:10 | 25.95469 | -80.38288 | 1687 ft | 184 kts | 81° |
| 2026-04-25 00:10 | 25.95477 | -80.36913 | 1670 ft | 179 kts | 108° |
| 2026-04-25 00:11 | 25.94866 | -80.35720 | 1446 ft | 167 kts | 122° |
| 2026-04-25 00:11 | 25.94334 | -80.34746 | 1262 ft | 135 kts | 120° |
| 2026-04-25 00:11 | 25.93867 | -80.33898 | 1092 ft | 129 kts | 120° |
| 2026-04-25 00:11 | 25.93396 | -80.33039 | 928 ft | 130 kts | 121° |
| 2026-04-25 00:12 | 25.92916 | -80.32184 | 767 ft | 131 kts | 120° |
| 2026-04-25 00:12 | 25.92430 | -80.31314 | 596 ft | 135 kts | 120° |
| 2026-04-25 00:12 | 25.91934 | -80.30424 | 401 ft | 135 kts | 120° |
| 2026-04-25 00:12 | 25.91445 | -80.29573 | 209 ft | 127 kts | 121° |
| 2026-04-25 00:13 | 25.90972 | -80.28722 | 53 ft | 127 kts | 120° |
| 2026-04-25 00:13 | 25.90587 | -80.28035 | 13 ft | 74 kts | 122° |
| 2026-04-25 00:13 | 25.90402 | -80.27703 | 12 ft | 45 kts | 122° |
| 2026-04-25 00:13 | 25.90253 | -80.27439 | 9 ft | 37 kts | 122° |
| 2026-04-25 00:14 | 25.90133 | -80.27224 | 10 ft | 25 kts | 118° |
| 2026-04-25 00:14 | 25.90150 | -80.27115 | 10 ft | 0 kts | 53° |
| 2026-04-25 00:14 | 25.90161 | -80.27099 | 10 ft | 5 kts | 52° |
| 2026-04-25 00:15 | 25.90192 | -80.27056 | 10 ft | 9 kts | 49° |
| 2026-04-25 00:15 | 25.90250 | -80.27004 | 10 ft | 12 kts | 43° |
| 2026-04-25 00:15 | 25.90273 | -80.26918 | 10 ft | 8 kts | 58° |
| 2026-04-25 00:15 | 25.90322 | -80.26917 | 10 ft | 2 kts | 315° |
| 2026-04-25 00:16 | 25.90322 | -80.26942 | 10 ft | 0 kts | 269° |